Laings, Ohio
Current Conditions -  °F | °C
As of 5:53 PM on Saturday 25 Oct 2014 (Local Time) from KPKB Reporting Station
Clear Clear  
Wind Chill: 66°   Ceiling: Unl
Heat Index: 66°   Visibility: 10mi
Dew Point: 51°   Wind: 7mph
Humidity: 59%   Direction: 250°WSW
Pressure: 29.88"   Gusts: NA
Location:  39.72°N, 81.01°W
Report Text: KPKB 252153Z 25006KT 10SM CLR 19/11 A2988 RMK AO2 SLP118 T01890106
Loading
Personal Weather Stations






























Interactive Weather Map
Tropical Storm Tracking
New forecast layout! Learn more

10-Day Weather Forecast

Advertisements
Track Severe Weather on mobile